Blue Jay, California
Current Conditions -  °F | °C
As of 3:50 PM on Sunday 21 Dec 2014 (Local Time) from KSBD Reporting Station
Overcast Overcast  
Wind Chill: 17°   Ceiling: 15000
Heat Index: 17°   Visibility: 7mi
Dew Point:   Wind: 0mph
Humidity: 55%   Direction: NA
Pressure: 30.05"   Gusts: NA
Location:  34.25°N, 117.21°W
Report Text: KSBD 212350Z 00000KT 7SM OVC150 17/08 A3005
Loading
Personal Weather Stations






























Interactive Weather Map New forecast layout! Learn more

10-Day Weather Forecast

Advertisements
Track Severe Weather on mobile